Bardstown, KY

3:29 AM EST on January 30, 2015 (GMT -0500)
Oak Knoll Subdivision | Change Station
CLOSE
Current Station
Personal Weather Station
Location: Bardstown, KY
Elevation: 715 ft
Nearby Weather Stations

Elev 715 ft 37.78 °N, 85.41 °W | Updated 1 minute ago

Overcast
Overcast
34.3 °F
Feels Like 31 °F
N
4.2
Wind Variable Wind from West

Today
High -- | Low -- °F
--% Chance of Precip.
Yesterday
High -- | Low -- °F
Precip. -- in
7:47 AM 6:02 PM
Waxing Gibbous, 81% visible
Pressure 30.30 in
Visibility 10.0 miles
Clouds Overcast 2000 ft
Windchill 31 °F
Dew Point 31 °F
Humidity 86%
Rainfall 0.00 in
Snow Depth Not available.
UV 0 out of 12
Pollen .30 out of 12
Air Quality Not available.
Flu Activity Not available.
SPECI KFTK 300825Z AUTO 28010KT 10SM OVC020 01/M02 A3030 RMK AO2 OVC V BKN

More Conditions Fewer Conditions

Pressure 30.30 in
Visibility 10.0 miles
Clouds Overcast 2000 ft
Windchill 31 °F
Dew Point 31 °F
Humidity 86%
Rainfall 0.00 in
Snow Depth Not available.
UV 0 out of 12
Pollen .30 out of 12
Air Quality Not available.
Flu Activity Not available.
SPECI KFTK 300825Z AUTO 28010KT 10SM OVC020 01/M02 A3030 RMK AO2 OVC V BKN

More Conditions Fewer Conditions

10-Day Weather Forecast

Almanac

Astronomy

Jan. 30, 2015 Rise Set
Actual Time
Civil Twilight
Nautical Twilight
Astronomical Twilight
Moon
Length of Visible Light
Length of Day
Tomorrow will be .
, % of the Moon is Illuminated

Today's Extremes

State Highs State Lows

Community

WunderPhotos

Upload Photos

1,791,726 photos uploaded!

WunderBlogs® & News

Nearby

Air Quality

  Air Quality AQ Index Pollutant
Not available.

Snow Depth

Station Depth Elevation

Earthquake Activity

City Distance Mag. Time & Date
Minimum magnitude displayed is 2.5.

Coastal Water Temperatures

Place Temperature

Nearby Weather Stations